sensor_id;sensor_type;location;lat;lon;timestamp;P1;durP1;ratioP1;P2;durP2;ratioP2
12906;SDS011;6521;50.498;8.474;2023-05-07T00:01:46;3.25;;;2.65;;
12906;SDS011;6521;50.498;8.474;2023-05-07T00:04:17;3.83;;;3.15;;
12906;SDS011;6521;50.498;8.474;2023-05-07T00:06:47;3.17;;;2.85;;
12906;SDS011;6521;50.498;8.474;2023-05-07T00:09:18;3.53;;;3.22;;
12906;SDS011;6521;50.498;8.474;2023-05-07T00:11:49;3.08;;;2.78;;
12906;SDS011;6521;50.498;8.474;2023-05-07T00:14:20;3.20;;;2.90;;
12906;SDS011;6521;50.498;8.474;2023-05-07T00:16:51;4.97;;;3.53;;
12906;SDS011;6521;50.498;8.474;2023-05-07T00:19:21;3.95;;;3.03;;
12906;SDS011;6521;50.498;8.474;2023-05-07T00:21:52;3.28;;;2.97;;
12906;SDS011;6521;50.498;8.474;2023-05-07T00:24:27;2.95;;;2.75;;
12906;SDS011;6521;50.498;8.474;2023-05-07T00:26:57;3.17;;;2.88;;
12906;SDS011;6521;50.498;8.474;2023-05-07T00:29:28;4.10;;;3.10;;
12906;SDS011;6521;50.498;8.474;2023-05-07T00:31:59;3.55;;;3.20;;
12906;SDS011;6521;50.498;8.474;2023-05-07T00:34:32;3.45;;;3.10;;
12906;SDS011;6521;50.498;8.474;2023-05-07T00:37:05;4.45;;;3.63;;
12906;SDS011;6521;50.498;8.474;2023-05-07T00:39:37;3.50;;;3.20;;
12906;SDS011;6521;50.498;8.474;2023-05-07T00:42:08;3.63;;;3.33;;
12906;SDS011;6521;50.498;8.474;2023-05-07T00:44:39;3.33;;;3.03;;
12906;SDS011;6521;50.498;8.474;2023-05-07T00:47:10;3.63;;;3.33;;
12906;SDS011;6521;50.498;8.474;2023-05-07T00:49:42;3.05;;;2.85;;
12906;SDS011;6521;50.498;8.474;2023-05-07T00:52:14;3.28;;;2.97;;
12906;SDS011;6521;50.498;8.474;2023-05-07T00:54:47;3.80;;;3.30;;
12906;SDS011;6521;50.498;8.474;2023-05-07T00:57:18;3.85;;;3.38;;
12906;SDS011;6521;50.498;8.474;2023-05-07T00:59:52;4.03;;;3.50;;
12906;SDS011;6521;50.498;8.474;2023-05-07T01:02:22;6.65;;;3.70;;
12906;SDS011;6521;50.498;8.474;2023-05-07T01:04:53;4.18;;;3.78;;
12906;SDS011;6521;50.498;8.474;2023-05-07T01:07:25;4.03;;;3.30;;
12906;SDS011;6521;50.498;8.474;2023-05-07T01:09:57;3.47;;;3.17;;
12906;SDS011;6521;50.498;8.474;2023-05-07T01:12:29;3.63;;;3.33;;
12906;SDS011;6521;50.498;8.474;2023-05-07T01:15:01;3.63;;;3.33;;
12906;SDS011;6521;50.498;8.474;2023-05-07T01:17:36;3.47;;;3.17;;
12906;SDS011;6521;50.498;8.474;2023-05-07T01:20:17;4.53;;;3.70;;
12906;SDS011;6521;50.498;8.474;2023-05-07T01:22:50;5.07;;;2.95;;
12906;SDS011;6521;50.498;8.474;2023-05-07T01:25:21;4.75;;;3.38;;
12906;SDS011;6521;50.498;8.474;2023-05-07T01:27:56;4.32;;;3.35;;
12906;SDS011;6521;50.498;8.474;2023-05-07T01:30:32;5.47;;;3.40;;
12906;SDS011;6521;50.498;8.474;2023-05-07T01:33:08;5.13;;;3.55;;
12906;SDS011;6521;50.498;8.474;2023-05-07T01:35:42;4.13;;;3.65;;
12906;SDS011;6521;50.498;8.474;2023-05-07T01:38:16;5.00;;;3.58;;
12906;SDS011;6521;50.498;8.474;2023-05-07T01:40:48;5.47;;;3.42;;
12906;SDS011;6521;50.498;8.474;2023-05-07T01:43:19;3.72;;;3.40;;
12906;SDS011;6521;50.498;8.474;2023-05-07T01:45:50;3.50;;;3.20;;
12906;SDS011;6521;50.498;8.474;2023-05-07T01:48:21;4.38;;;3.45;;
12906;SDS011;6521;50.498;8.474;2023-05-07T01:50:52;4.30;;;3.65;;
12906;SDS011;6521;50.498;8.474;2023-05-07T01:53:25;6.47;;;3.40;;
12906;SDS011;6521;50.498;8.474;2023-05-07T01:56:06;5.50;;;4.00;;
12906;SDS011;6521;50.498;8.474;2023-05-07T01:58:40;3.92;;;3.60;;
12906;SDS011;6521;50.498;8.474;2023-05-07T02:01:12;4.75;;;3.63;;
12906;SDS011;6521;50.498;8.474;2023-05-07T02:03:44;4.10;;;3.63;;
12906;SDS011;6521;50.498;8.474;2023-05-07T02:06:23;5.47;;;4.95;;
12906;SDS011;6521;50.498;8.474;2023-05-07T02:08:56;8.88;;;4.47;;
12906;SDS011;6521;50.498;8.474;2023-05-07T02:11:27;4.78;;;4.25;;
12906;SDS011;6521;50.498;8.474;2023-05-07T02:13:59;4.22;;;3.80;;
12906;SDS011;6521;50.498;8.474;2023-05-07T02:16:42;5.03;;;4.18;;
12906;SDS011;6521;50.498;8.474;2023-05-07T02:19:14;4.70;;;4.30;;
12906;SDS011;6521;50.498;8.474;2023-05-07T02:21:45;6.07;;;4.53;;
12906;SDS011;6521;50.498;8.474;2023-05-07T02:24:15;4.45;;;4.03;;
12906;SDS011;6521;50.498;8.474;2023-05-07T02:26:46;5.47;;;4.60;;
12906;SDS011;6521;50.498;8.474;2023-05-07T02:29:17;5.03;;;4.53;;
12906;SDS011;6521;50.498;8.474;2023-05-07T02:31:48;5.03;;;4.18;;
12906;SDS011;6521;50.498;8.474;2023-05-07T02:34:21;5.40;;;4.25;;
12906;SDS011;6521;50.498;8.474;2023-05-07T02:36:52;4.65;;;4.25;;
12906;SDS011;6521;50.498;8.474;2023-05-07T02:39:26;5.72;;;4.75;;
12906;SDS011;6521;50.498;8.474;2023-05-07T02:41:57;6.82;;;4.28;;
12906;SDS011;6521;50.498;8.474;2023-05-07T02:44:28;4.30;;;3.90;;
12906;SDS011;6521;50.498;8.474;2023-05-07T02:47:02;6.80;;;4.57;;
12906;SDS011;6521;50.498;8.474;2023-05-07T02:49:35;4.97;;;4.43;;
12906;SDS011;6521;50.498;8.474;2023-05-07T02:52:06;4.32;;;3.92;;
12906;SDS011;6521;50.498;8.474;2023-05-07T02:54:37;4.95;;;4.47;;
12906;SDS011;6521;50.498;8.474;2023-05-07T02:57:08;5.45;;;4.68;;
12906;SDS011;6521;50.498;8.474;2023-05-07T02:59:38;5.65;;;5.15;;
12906;SDS011;6521;50.498;8.474;2023-05-07T03:02:09;4.90;;;4.47;;
12906;SDS011;6521;50.498;8.474;2023-05-07T03:04:40;5.57;;;4.85;;
12906;SDS011;6521;50.498;8.474;2023-05-07T03:07:11;4.45;;;4.05;;
12906;SDS011;6521;50.498;8.474;2023-05-07T03:09:43;5.07;;;4.57;;
12906;SDS011;6521;50.498;8.474;2023-05-07T03:12:13;4.70;;;4.30;;
12906;SDS011;6521;50.498;8.474;2023-05-07T03:14:44;5.25;;;4.75;;
12906;SDS011;6521;50.498;8.474;2023-05-07T03:17:15;9.25;;;4.75;;
12906;SDS011;6521;50.498;8.474;2023-05-07T03:19:47;5.65;;;4.60;;
12906;SDS011;6521;50.498;8.474;2023-05-07T03:22:18;5.78;;;4.68;;
12906;SDS011;6521;50.498;8.474;2023-05-07T03:24:48;8.15;;;4.70;;
12906;SDS011;6521;50.498;8.474;2023-05-07T03:27:19;6.68;;;4.57;;
12906;SDS011;6521;50.498;8.474;2023-05-07T03:29:51;4.78;;;4.05;;
12906;SDS011;6521;50.498;8.474;2023-05-07T03:32:22;4.45;;;4.05;;
12906;SDS011;6521;50.498;8.474;2023-05-07T03:34:54;3.95;;;3.65;;
12906;SDS011;6521;50.498;8.474;2023-05-07T03:37:25;5.72;;;4.28;;
12906;SDS011;6521;50.498;8.474;2023-05-07T03:42:57;5.40;;;3.75;;
12906;SDS011;6521;50.498;8.474;2023-05-07T03:45:30;5.53;;;4.03;;
12906;SDS011;6521;50.498;8.474;2023-05-07T03:48:19;5.10;;;4.18;;
12906;SDS011;6521;50.498;8.474;2023-05-07T03:50:51;5.45;;;4.38;;
12906;SDS011;6521;50.498;8.474;2023-05-07T03:53:23;4.82;;;4.43;;
12906;SDS011;6521;50.498;8.474;2023-05-07T03:55:55;4.53;;;4.13;;
12906;SDS011;6521;50.498;8.474;2023-05-07T03:58:26;5.07;;;4.57;;
12906;SDS011;6521;50.498;8.474;2023-05-07T04:01:00;5.25;;;4.60;;
12906;SDS011;6521;50.498;8.474;2023-05-07T04:03:33;5.38;;;4.88;;
12906;SDS011;6521;50.498;8.474;2023-05-07T04:06:04;4.85;;;4.40;;
12906;SDS011;6521;50.498;8.474;2023-05-07T04:08:38;6.13;;;4.97;;
12906;SDS011;6521;50.498;8.474;2023-05-07T04:11:10;5.32;;;4.82;;
12906;SDS011;6521;50.498;8.474;2023-05-07T04:13:42;6.78;;;5.25;;
12906;SDS011;6521;50.498;8.474;2023-05-07T04:16:13;13.20;;;5.15;;
12906;SDS011;6521;50.498;8.474;2023-05-07T04:18:44;9.90;;;4.72;;
12906;SDS011;6521;50.498;8.474;2023-05-07T04:21:16;5.20;;;4.53;;
12906;SDS011;6521;50.498;8.474;2023-05-07T04:23:48;13.27;;;4.78;;
12906;SDS011;6521;50.498;8.474;2023-05-07T04:26:19;5.78;;;4.57;;
12906;SDS011;6521;50.498;8.474;2023-05-07T04:28:51;7.78;;;4.68;;
12906;SDS011;6521;50.498;8.474;2023-05-07T04:31:25;10.00;;;5.20;;
12906;SDS011;6521;50.498;8.474;2023-05-07T04:34:12;6.95;;;5.32;;
12906;SDS011;6521;50.498;8.474;2023-05-07T04:36:45;8.02;;;5.57;;
12906;SDS011;6521;50.498;8.474;2023-05-07T04:39:17;7.53;;;5.88;;
12906;SDS011;6521;50.498;8.474;2023-05-07T04:41:51;9.07;;;5.22;;
12906;SDS011;6521;50.498;8.474;2023-05-07T04:44:22;5.60;;;5.10;;
12906;SDS011;6521;50.498;8.474;2023-05-07T04:46:53;10.50;;;5.43;;
12906;SDS011;6521;50.498;8.474;2023-05-07T04:49:24;5.63;;;5.07;;
12906;SDS011;6521;50.498;8.474;2023-05-07T04:51:57;6.97;;;5.40;;
12906;SDS011;6521;50.498;8.474;2023-05-07T04:54:28;7.25;;;5.47;;
12906;SDS011;6521;50.498;8.474;2023-05-07T04:56:59;9.50;;;5.65;;
12906;SDS011;6521;50.498;8.474;2023-05-07T04:59:30;9.68;;;5.10;;
12906;SDS011;6521;50.498;8.474;2023-05-07T05:02:01;6.05;;;5.55;;
12906;SDS011;6521;50.498;8.474;2023-05-07T05:04:32;10.15;;;6.03;;
12906;SDS011;6521;50.498;8.474;2023-05-07T05:07:03;7.57;;;5.80;;
12906;SDS011;6521;50.498;8.474;2023-05-07T05:09:35;6.47;;;5.88;;
12906;SDS011;6521;50.498;8.474;2023-05-07T05:12:06;6.32;;;5.72;;
12906;SDS011;6521;50.498;8.474;2023-05-07T05:14:38;11.07;;;6.57;;
12906;SDS011;6521;50.498;8.474;2023-05-07T05:17:09;6.22;;;5.43;;
12906;SDS011;6521;50.498;8.474;2023-05-07T05:19:41;8.55;;;6.38;;
12906;SDS011;6521;50.498;8.474;2023-05-07T05:22:11;9.52;;;6.25;;
12906;SDS011;6521;50.498;8.474;2023-05-07T05:24:42;9.32;;;6.75;;
12906;SDS011;6521;50.498;8.474;2023-05-07T05:27:13;7.22;;;6.53;;
12906;SDS011;6521;50.498;8.474;2023-05-07T05:29:44;8.98;;;7.35;;
12906;SDS011;6521;50.498;8.474;2023-05-07T05:32:15;7.65;;;6.72;;
12906;SDS011;6521;50.498;8.474;2023-05-07T05:34:47;8.98;;;6.95;;
12906;SDS011;6521;50.498;8.474;2023-05-07T05:37:18;9.57;;;6.85;;
12906;SDS011;6521;50.498;8.474;2023-05-07T05:39:49;9.88;;;7.57;;
12906;SDS011;6521;50.498;8.474;2023-05-07T05:42:20;9.70;;;6.88;;
12906;SDS011;6521;50.498;8.474;2023-05-07T05:44:52;8.65;;;7.57;;
12906;SDS011;6521;50.498;8.474;2023-05-07T05:47:23;9.52;;;7.57;;
12906;SDS011;6521;50.498;8.474;2023-05-07T05:49:57;9.93;;;8.15;;
12906;SDS011;6521;50.498;8.474;2023-05-07T05:52:28;12.38;;;8.77;;
12906;SDS011;6521;50.498;8.474;2023-05-07T05:55:00;12.80;;;8.45;;
12906;SDS011;6521;50.498;8.474;2023-05-07T05:57:31;12.32;;;11.02;;
12906;SDS011;6521;50.498;8.474;2023-05-07T06:00:02;13.13;;;11.90;;
12906;SDS011;6521;50.498;8.474;2023-05-07T06:02:37;15.48;;;11.88;;
12906;SDS011;6521;50.498;8.474;2023-05-07T06:05:08;12.32;;;11.13;;
12906;SDS011;6521;50.498;8.474;2023-05-07T06:07:43;12.20;;;10.88;;
12906;SDS011;6521;50.498;8.474;2023-05-07T06:10:14;12.00;;;10.38;;
12906;SDS011;6521;50.498;8.474;2023-05-07T06:12:45;17.17;;;11.48;;
12906;SDS011;6521;50.498;8.474;2023-05-07T06:15:17;16.08;;;11.88;;
12906;SDS011;6521;50.498;8.474;2023-05-07T06:17:48;12.80;;;11.57;;
12906;SDS011;6521;50.498;8.474;2023-05-07T06:20:19;13.40;;;12.13;;
12906;SDS011;6521;50.498;8.474;2023-05-07T06:22:50;14.35;;;12.85;;
12906;SDS011;6521;50.498;8.474;2023-05-07T06:25:21;16.63;;;13.70;;
12906;SDS011;6521;50.498;8.474;2023-05-07T06:27:52;15.88;;;13.05;;
12906;SDS011;6521;50.498;8.474;2023-05-07T06:30:48;15.48;;;13.85;;
12906;SDS011;6521;50.498;8.474;2023-05-07T06:33:21;15.52;;;13.18;;
12906;SDS011;6521;50.498;8.474;2023-05-07T06:35:52;14.88;;;13.35;;
12906;SDS011;6521;50.498;8.474;2023-05-07T06:38:23;15.75;;;14.25;;
12906;SDS011;6521;50.498;8.474;2023-05-07T06:40:54;15.73;;;14.13;;
12906;SDS011;6521;50.498;8.474;2023-05-07T06:43:27;21.23;;;15.35;;
12906;SDS011;6521;50.498;8.474;2023-05-07T06:46:01;18.40;;;13.75;;
12906;SDS011;6521;50.498;8.474;2023-05-07T06:48:31;17.55;;;15.10;;
12906;SDS011;6521;50.498;8.474;2023-05-07T06:51:06;21.75;;;14.60;;
12906;SDS011;6521;50.498;8.474;2023-05-07T06:53:37;17.98;;;14.38;;
12906;SDS011;6521;50.498;8.474;2023-05-07T06:56:15;20.92;;;14.82;;
12906;SDS011;6521;50.498;8.474;2023-05-07T06:58:46;17.45;;;14.48;;
12906;SDS011;6521;50.498;8.474;2023-05-07T07:01:17;16.73;;;15.07;;
12906;SDS011;6521;50.498;8.474;2023-05-07T07:03:48;16.70;;;14.77;;
12906;SDS011;6521;50.498;8.474;2023-05-07T07:06:19;23.23;;;14.82;;
12906;SDS011;6521;50.498;8.474;2023-05-07T07:08:50;16.08;;;14.40;;
12906;SDS011;6521;50.498;8.474;2023-05-07T07:11:22;20.40;;;14.88;;
12906;SDS011;6521;50.498;8.474;2023-05-07T07:13:53;17.10;;;15.40;;
12906;SDS011;6521;50.498;8.474;2023-05-07T07:16:28;16.60;;;15.00;;
12906;SDS011;6521;50.498;8.474;2023-05-07T07:19:06;18.25;;;14.90;;
12906;SDS011;6521;50.498;8.474;2023-05-07T07:21:46;16.85;;;15.20;;
12906;SDS011;6521;50.498;8.474;2023-05-07T07:24:18;16.95;;;14.60;;
12906;SDS011;6521;50.498;8.474;2023-05-07T07:26:53;16.38;;;14.68;;
12906;SDS011;6521;50.498;8.474;2023-05-07T07:29:26;17.08;;;14.98;;
12906;SDS011;6521;50.498;8.474;2023-05-07T07:31:57;17.15;;;15.55;;
12906;SDS011;6521;50.498;8.474;2023-05-07T07:34:28;17.15;;;15.50;;
12906;SDS011;6521;50.498;8.474;2023-05-07T07:36:59;19.15;;;14.63;;
12906;SDS011;6521;50.498;8.474;2023-05-07T07:39:35;18.58;;;16.27;;
12906;SDS011;6521;50.498;8.474;2023-05-07T07:42:08;18.77;;;16.00;;
12906;SDS011;6521;50.498;8.474;2023-05-07T07:44:39;19.40;;;15.98;;
12906;SDS011;6521;50.498;8.474;2023-05-07T07:47:12;16.65;;;15.05;;
12906;SDS011;6521;50.498;8.474;2023-05-07T07:49:44;18.70;;;15.07;;
12906;SDS011;6521;50.498;8.474;2023-05-07T07:52:21;16.50;;;14.80;;
12906;SDS011;6521;50.498;8.474;2023-05-07T07:54:52;18.20;;;14.90;;
12906;SDS011;6521;50.498;8.474;2023-05-07T07:57:23;15.63;;;14.02;;
12906;SDS011;6521;50.498;8.474;2023-05-07T07:59:54;16.48;;;14.88;;
12906;SDS011;6521;50.498;8.474;2023-05-07T08:02:25;17.95;;;16.05;;
12906;SDS011;6521;50.498;8.474;2023-05-07T08:04:56;15.63;;;14.00;;
12906;SDS011;6521;50.498;8.474;2023-05-07T08:07:27;17.20;;;15.40;;
12906;SDS011;6521;50.498;8.474;2023-05-07T08:09:59;16.50;;;14.90;;
12906;SDS011;6521;50.498;8.474;2023-05-07T08:12:30;15.60;;;14.00;;
12906;SDS011;6521;50.498;8.474;2023-05-07T08:15:07;17.40;;;15.25;;
12906;SDS011;6521;50.498;8.474;2023-05-07T08:17:41;16.05;;;14.40;;
12906;SDS011;6521;50.498;8.474;2023-05-07T08:20:13;16.42;;;14.82;;
12906;SDS011;6521;50.498;8.474;2023-05-07T08:22:44;17.05;;;14.13;;
12906;SDS011;6521;50.498;8.474;2023-05-07T08:25:15;15.93;;;14.25;;
12906;SDS011;6521;50.498;8.474;2023-05-07T08:27:46;16.60;;;14.82;;
12906;SDS011;6521;50.498;8.474;2023-05-07T08:30:17;14.57;;;12.65;;
12906;SDS011;6521;50.498;8.474;2023-05-07T08:32:49;17.35;;;14.48;;
12906;SDS011;6521;50.498;8.474;2023-05-07T08:35:20;17.95;;;16.15;;
12906;SDS011;6521;50.498;8.474;2023-05-07T08:37:54;14.65;;;13.23;;
12906;SDS011;6521;50.498;8.474;2023-05-07T08:40:26;15.30;;;13.63;;
12906;SDS011;6521;50.498;8.474;2023-05-07T08:42:58;15.60;;;14.05;;
12906;SDS011;6521;50.498;8.474;2023-05-07T08:45:30;15.27;;;13.77;;
12906;SDS011;6521;50.498;8.474;2023-05-07T08:48:05;18.00;;;13.25;;
12906;SDS011;6521;50.498;8.474;2023-05-07T08:50:40;15.23;;;13.73;;
12906;SDS011;6521;50.498;8.474;2023-05-07T08:53:10;14.73;;;13.23;;
12906;SDS011;6521;50.498;8.474;2023-05-07T08:55:43;15.77;;;14.15;;
12906;SDS011;6521;50.498;8.474;2023-05-07T08:58:15;15.48;;;13.60;;
12906;SDS011;6521;50.498;8.474;2023-05-07T09:00:46;15.35;;;13.70;;
12906;SDS011;6521;50.498;8.474;2023-05-07T09:03:19;15.68;;;14.10;;
12906;SDS011;6521;50.498;8.474;2023-05-07T09:05:53;17.77;;;13.95;;
12906;SDS011;6521;50.498;8.474;2023-05-07T09:08:28;18.80;;;14.40;;
12906;SDS011;6521;50.498;8.474;2023-05-07T09:11:02;16.63;;;14.63;;
12906;SDS011;6521;50.498;8.474;2023-05-07T09:13:34;16.52;;;14.95;;
12906;SDS011;6521;50.498;8.474;2023-05-07T09:16:10;15.15;;;13.65;;
12906;SDS011;6521;50.498;8.474;2023-05-07T09:18:43;14.27;;;12.88;;
12906;SDS011;6521;50.498;8.474;2023-05-07T09:21:18;18.15;;;14.40;;
12906;SDS011;6521;50.498;8.474;2023-05-07T09:23:51;15.68;;;14.07;;
12906;SDS011;6521;50.498;8.474;2023-05-07T09:26:45;14.25;;;12.52;;
12906;SDS011;6521;50.498;8.474;2023-05-07T09:29:18;16.92;;;13.80;;
12906;SDS011;6521;50.498;8.474;2023-05-07T09:31:49;16.17;;;13.50;;
12906;SDS011;6521;50.498;8.474;2023-05-07T09:34:22;14.90;;;13.45;;
12906;SDS011;6521;50.498;8.474;2023-05-07T09:36:53;14.80;;;12.27;;
12906;SDS011;6521;50.498;8.474;2023-05-07T09:39:24;14.80;;;12.80;;
12906;SDS011;6521;50.498;8.474;2023-05-07T09:41:56;13.75;;;12.32;;
12906;SDS011;6521;50.498;8.474;2023-05-07T09:47:45;12.15;;;11.02;;
12906;SDS011;6521;50.498;8.474;2023-05-07T09:50:19;18.38;;;12.45;;
12906;SDS011;6521;50.498;8.474;2023-05-07T09:52:50;12.63;;;11.45;;
12906;SDS011;6521;50.498;8.474;2023-05-07T09:55:22;14.88;;;13.38;;
12906;SDS011;6521;50.498;8.474;2023-05-07T09:57:53;12.38;;;11.15;;
12906;SDS011;6521;50.498;8.474;2023-05-07T10:00:25;22.55;;;11.40;;
12906;SDS011;6521;50.498;8.474;2023-05-07T10:03:05;13.07;;;11.35;;
12906;SDS011;6521;50.498;8.474;2023-05-07T10:05:46;11.68;;;10.57;;
12906;SDS011;6521;50.498;8.474;2023-05-07T10:08:18;11.82;;;10.65;;
12906;SDS011;6521;50.498;8.474;2023-05-07T10:10:51;13.55;;;10.20;;
12906;SDS011;6521;50.498;8.474;2023-05-07T10:13:26;11.07;;;10.00;;
12906;SDS011;6521;50.498;8.474;2023-05-07T10:16:00;12.52;;;11.25;;
12906;SDS011;6521;50.498;8.474;2023-05-07T10:18:36;18.80;;;10.65;;
12906;SDS011;6521;50.498;8.474;2023-05-07T10:21:17;15.07;;;10.30;;
12906;SDS011;6521;50.498;8.474;2023-05-07T10:24:04;12.88;;;10.38;;
12906;SDS011;6521;50.498;8.474;2023-05-07T10:26:45;11.98;;;9.85;;
12906;SDS011;6521;50.498;8.474;2023-05-07T10:34:47;11.27;;;9.93;;
12906;SDS011;6521;50.498;8.474;2023-05-07T10:37:21;12.40;;;9.32;;
12906;SDS011;6521;50.498;8.474;2023-05-07T10:39:53;10.00;;;9.10;;
12906;SDS011;6521;50.498;8.474;2023-05-07T10:42:25;10.63;;;9.48;;
12906;SDS011;6521;50.498;8.474;2023-05-07T10:45:15;10.45;;;8.95;;
12906;SDS011;6521;50.498;8.474;2023-05-07T10:50:40;14.30;;;9.02;;
12906;SDS011;6521;50.498;8.474;2023-05-07T10:55:49;10.20;;;9.10;;
12906;SDS011;6521;50.498;8.474;2023-05-07T10:58:25;9.45;;;8.55;;
12906;SDS011;6521;50.498;8.474;2023-05-07T11:01:02;9.55;;;8.55;;
12906;SDS011;6521;50.498;8.474;2023-05-07T11:15:08;9.40;;;8.50;;
12906;SDS011;6521;50.498;8.474;2023-05-07T11:17:56;9.32;;;8.35;;
12906;SDS011;6521;50.498;8.474;2023-05-07T11:26:28;11.27;;;8.75;;
12906;SDS011;6521;50.498;8.474;2023-05-07T11:29:16;9.02;;;7.28;;
12906;SDS011;6521;50.498;8.474;2023-05-07T11:31:52;8.98;;;7.95;;
12906;SDS011;6521;50.498;8.474;2023-05-07T11:34:26;8.30;;;7.60;;
12906;SDS011;6521;50.498;8.474;2023-05-07T11:36:59;8.65;;;7.72;;
12906;SDS011;6521;50.498;8.474;2023-05-07T11:39:50;7.88;;;6.97;;
12906;SDS011;6521;50.498;8.474;2023-05-07T11:42:29;7.65;;;6.50;;
12906;SDS011;6521;50.498;8.474;2023-05-07T11:45:05;7.57;;;6.88;;
12906;SDS011;6521;50.498;8.474;2023-05-07T11:47:37;8.95;;;7.32;;
12906;SDS011;6521;50.498;8.474;2023-05-07T11:50:08;7.68;;;7.07;;
12906;SDS011;6521;50.498;8.474;2023-05-07T11:52:38;7.53;;;6.63;;
12906;SDS011;6521;50.498;8.474;2023-05-07T11:55:09;6.90;;;6.20;;
12906;SDS011;6521;50.498;8.474;2023-05-07T11:57:40;7.00;;;6.00;;
12906;SDS011;6521;50.498;8.474;2023-05-07T12:00:15;9.18;;;6.63;;
12906;SDS011;6521;50.498;8.474;2023-05-07T12:02:46;7.68;;;6.93;;
12906;SDS011;6521;50.498;8.474;2023-05-07T12:05:17;7.45;;;6.75;;
12906;SDS011;6521;50.498;8.474;2023-05-07T12:07:48;8.90;;;7.38;;
12906;SDS011;6521;50.498;8.474;2023-05-07T12:10:19;10.82;;;7.38;;
12906;SDS011;6521;50.498;8.474;2023-05-07T12:12:50;8.73;;;7.93;;
12906;SDS011;6521;50.498;8.474;2023-05-07T12:15:24;9.60;;;7.70;;
12906;SDS011;6521;50.498;8.474;2023-05-07T12:17:55;9.88;;;7.40;;
12906;SDS011;6521;50.498;8.474;2023-05-07T12:20:25;6.85;;;6.22;;
12906;SDS011;6521;50.498;8.474;2023-05-07T12:22:56;7.45;;;6.75;;
12906;SDS011;6521;50.498;8.474;2023-05-07T12:25:31;9.52;;;6.03;;
12906;SDS011;6521;50.498;8.474;2023-05-07T12:28:02;7.63;;;6.90;;
12906;SDS011;6521;50.498;8.474;2023-05-07T12:30:38;9.30;;;6.68;;
12906;SDS011;6521;50.498;8.474;2023-05-07T12:33:10;6.53;;;5.88;;
12906;SDS011;6521;50.498;8.474;2023-05-07T12:35:42;10.05;;;6.72;;
12906;SDS011;6521;50.498;8.474;2023-05-07T12:38:14;6.97;;;6.35;;
12906;SDS011;6521;50.498;8.474;2023-05-07T12:40:50;6.00;;;5.50;;
12906;SDS011;6521;50.498;8.474;2023-05-07T12:43:24;8.80;;;6.47;;
12906;SDS011;6521;50.498;8.474;2023-05-07T12:45:57;7.95;;;5.75;;
12906;SDS011;6521;50.498;8.474;2023-05-07T12:48:29;6.93;;;5.50;;
12906;SDS011;6521;50.498;8.474;2023-05-07T12:51:01;5.88;;;5.38;;
12906;SDS011;6521;50.498;8.474;2023-05-07T12:53:32;5.70;;;4.75;;
12906;SDS011;6521;50.498;8.474;2023-05-07T12:56:03;5.32;;;4.82;;
12906;SDS011;6521;50.498;8.474;2023-05-07T12:58:36;7.82;;;5.10;;
12906;SDS011;6521;50.498;8.474;2023-05-07T13:01:07;5.25;;;4.78;;
12906;SDS011;6521;50.498;8.474;2023-05-07T13:03:39;7.80;;;5.20;;
12906;SDS011;6521;50.498;8.474;2023-05-07T13:06:10;7.05;;;4.88;;
12906;SDS011;6521;50.498;8.474;2023-05-07T13:08:42;5.47;;;4.95;;
12906;SDS011;6521;50.498;8.474;2023-05-07T13:11:13;8.55;;;5.13;;
12906;SDS011;6521;50.498;8.474;2023-05-07T13:13:44;5.18;;;4.70;;
12906;SDS011;6521;50.498;8.474;2023-05-07T13:16:15;5.03;;;4.53;;
12906;SDS011;6521;50.498;8.474;2023-05-07T13:18:45;6.05;;;5.20;;
12906;SDS011;6521;50.498;8.474;2023-05-07T13:21:16;5.68;;;5.18;;
12906;SDS011;6521;50.498;8.474;2023-05-07T13:23:47;5.50;;;5.00;;
12906;SDS011;6521;50.498;8.474;2023-05-07T13:26:17;8.30;;;5.18;;
12906;SDS011;6521;50.498;8.474;2023-05-07T13:28:48;5.50;;;5.00;;
12906;SDS011;6521;50.498;8.474;2023-05-07T13:31:19;6.13;;;5.30;;
12906;SDS011;6521;50.498;8.474;2023-05-07T13:33:51;6.32;;;5.45;;
12906;SDS011;6521;50.498;8.474;2023-05-07T13:36:22;6.25;;;5.50;;
12906;SDS011;6521;50.498;8.474;2023-05-07T13:38:53;6.32;;;5.43;;
12906;SDS011;6521;50.498;8.474;2023-05-07T13:41:24;5.90;;;4.55;;
12906;SDS011;6521;50.498;8.474;2023-05-07T13:43:55;5.35;;;4.45;;
12906;SDS011;6521;50.498;8.474;2023-05-07T13:46:26;5.38;;;4.63;;
12906;SDS011;6521;50.498;8.474;2023-05-07T13:48:57;4.93;;;4.53;;
12906;SDS011;6521;50.498;8.474;2023-05-07T13:51:27;4.78;;;4.38;;
12906;SDS011;6521;50.498;8.474;2023-05-07T13:53:58;5.90;;;4.75;;
12906;SDS011;6521;50.498;8.474;2023-05-07T13:56:29;8.75;;;4.63;;
12906;SDS011;6521;50.498;8.474;2023-05-07T13:59:01;6.35;;;4.70;;
12906;SDS011;6521;50.498;8.474;2023-05-07T14:01:32;6.82;;;4.55;;
12906;SDS011;6521;50.498;8.474;2023-05-07T14:04:03;7.63;;;5.32;;
12906;SDS011;6521;50.498;8.474;2023-05-07T14:06:34;6.43;;;5.00;;
12906;SDS011;6521;50.498;8.474;2023-05-07T14:09:05;5.28;;;4.30;;
12906;SDS011;6521;50.498;8.474;2023-05-07T14:11:35;5.70;;;4.35;;
12906;SDS011;6521;50.498;8.474;2023-05-07T14:14:06;4.30;;;3.90;;
12906;SDS011;6521;50.498;8.474;2023-05-07T14:16:37;5.20;;;4.13;;
12906;SDS011;6521;50.498;8.474;2023-05-07T14:19:08;4.45;;;4.07;;
12906;SDS011;6521;50.498;8.474;2023-05-07T14:21:38;5.28;;;4.47;;
12906;SDS011;6521;50.498;8.474;2023-05-07T14:24:12;5.28;;;4.18;;
12906;SDS011;6521;50.498;8.474;2023-05-07T14:26:43;6.53;;;3.90;;
12906;SDS011;6521;50.498;8.474;2023-05-07T14:29:15;5.93;;;3.53;;
12906;SDS011;6521;50.498;8.474;2023-05-07T14:31:49;4.65;;;3.50;;
12906;SDS011;6521;50.498;8.474;2023-05-07T14:34:19;4.40;;;4.00;;
12906;SDS011;6521;50.498;8.474;2023-05-07T14:36:50;3.85;;;3.45;;
12906;SDS011;6521;50.498;8.474;2023-05-07T14:39:22;4.32;;;3.53;;
12906;SDS011;6521;50.498;8.474;2023-05-07T14:41:53;3.83;;;3.50;;
12906;SDS011;6521;50.498;8.474;2023-05-07T14:44:24;4.20;;;3.80;;
12906;SDS011;6521;50.498;8.474;2023-05-07T14:46:55;6.72;;;3.65;;
12906;SDS011;6521;50.498;8.474;2023-05-07T14:49:26;6.70;;;3.95;;
12906;SDS011;6521;50.498;8.474;2023-05-07T14:51:57;3.92;;;3.45;;
12906;SDS011;6521;50.498;8.474;2023-05-07T14:54:30;4.75;;;3.50;;
12906;SDS011;6521;50.498;8.474;2023-05-07T14:57:01;3.38;;;2.95;;
12906;SDS011;6521;50.498;8.474;2023-05-07T14:59:32;3.38;;;3.08;;
12906;SDS011;6521;50.498;8.474;2023-05-07T15:02:03;4.45;;;2.85;;
12906;SDS011;6521;50.498;8.474;2023-05-07T15:04:35;3.55;;;3.13;;
12906;SDS011;6521;50.498;8.474;2023-05-07T15:07:05;4.10;;;2.88;;
12906;SDS011;6521;50.498;8.474;2023-05-07T15:09:39;3.05;;;2.85;;
12906;SDS011;6521;50.498;8.474;2023-05-07T15:12:13;6.45;;;3.17;;
12906;SDS011;6521;50.498;8.474;2023-05-07T15:14:44;4.40;;;2.70;;
12906;SDS011;6521;50.498;8.474;2023-05-07T15:17:15;3.15;;;2.85;;
12906;SDS011;6521;50.498;8.474;2023-05-07T15:19:46;3.17;;;2.75;;
12906;SDS011;6521;50.498;8.474;2023-05-07T15:22:17;4.82;;;2.85;;
12906;SDS011;6521;50.498;8.474;2023-05-07T15:24:47;2.47;;;2.28;;
12906;SDS011;6521;50.498;8.474;2023-05-07T15:27:18;2.70;;;2.50;;
12906;SDS011;6521;50.498;8.474;2023-05-07T15:29:49;2.90;;;2.60;;
12906;SDS011;6521;50.498;8.474;2023-05-07T15:32:19;4.05;;;2.97;;
12906;SDS011;6521;50.498;8.474;2023-05-07T15:34:50;5.57;;;3.25;;
12906;SDS011;6521;50.498;8.474;2023-05-07T15:37:21;5.38;;;3.17;;
12906;SDS011;6521;50.498;8.474;2023-05-07T15:39:51;3.55;;;2.88;;
12906;SDS011;6521;50.498;8.474;2023-05-07T15:42:22;3.45;;;3.20;;
12906;SDS011;6521;50.498;8.474;2023-05-07T15:44:53;3.65;;;2.88;;
12906;SDS011;6521;50.498;8.474;2023-05-07T15:47:24;3.05;;;2.75;;
12906;SDS011;6521;50.498;8.474;2023-05-07T15:49:54;5.20;;;3.67;;
12906;SDS011;6521;50.498;8.474;2023-05-07T15:52:25;5.03;;;4.10;;
12906;SDS011;6521;50.498;8.474;2023-05-07T15:54:57;5.03;;;3.85;;
12906;SDS011;6521;50.498;8.474;2023-05-07T15:57:28;3.88;;;3.55;;
12906;SDS011;6521;50.498;8.474;2023-05-07T15:59:59;4.45;;;4.05;;